createdAt,value
2019-04-29T00:02:48.777Z,68.70
2019-04-29T00:05:50.100Z,68.70
2019-04-29T00:08:51.573Z,68.90
2019-04-29T00:11:52.939Z,68.90
2019-04-29T00:15:02.829Z,69.10
2019-04-29T00:18:09.496Z,69.10
2019-04-29T00:21:10.840Z,69.40
2019-04-29T00:24:12.175Z,69.50
2019-04-29T00:27:13.727Z,69.40
2019-04-29T00:30:20.567Z,69.90
2019-04-29T00:33:22.065Z,70.40
2019-04-29T00:36:25.088Z,69.60
2019-04-29T00:39:48.221Z,69.50
2019-04-29T00:43:11.356Z,69.60
2019-04-29T00:46:13.138Z,69.70
2019-04-29T00:49:14.451Z,70.30
2019-04-29T00:52:15.876Z,71.20
2019-04-29T00:55:19.789Z,70.20
2019-04-29T00:58:21.094Z,70.10
2019-04-29T01:01:25.077Z,70.00
2019-04-29T01:04:26.427Z,70.00
2019-04-29T01:07:27.715Z,70.30
2019-04-29T01:10:29.044Z,70.70
2019-04-29T01:13:30.355Z,71.20
2019-04-29T01:16:31.778Z,70.90
2019-04-29T01:19:33.056Z,70.80
2019-04-29T01:22:34.382Z,70.80
2019-04-29T01:25:35.693Z,71.50
2019-04-29T01:28:56.207Z,70.80
2019-04-29T01:31:57.669Z,70.70
2019-04-29T01:34:58.965Z,70.70
2019-04-29T01:38:00.275Z,71.40
2019-04-29T01:41:07.871Z,71.80
2019-04-29T01:44:09.272Z,71.90
2019-04-29T01:47:10.597Z,71.90
2019-04-29T01:50:12.011Z,71.70
2019-04-29T01:53:13.333Z,71.50
2019-04-29T01:56:14.624Z,71.70
2019-04-29T01:59:15.955Z,71.60
2019-04-29T02:02:17.273Z,71.50
2019-04-29T02:05:18.680Z,71.70
2019-04-29T02:08:22.906Z,71.70
2019-04-29T02:11:24.238Z,71.80
2019-04-29T02:14:26.654Z,71.90
2019-04-29T02:17:27.947Z,71.90
2019-04-29T02:20:29.255Z,71.80
2019-04-29T02:23:36.726Z,71.90
2019-04-29T02:26:38.052Z,71.80
2019-04-29T02:29:39.394Z,71.60
2019-04-29T02:32:40.694Z,71.60
2019-04-29T02:35:42.283Z,71.50
2019-04-29T02:39:02.525Z,71.60
2019-04-29T02:42:24.561Z,71.60
2019-04-29T02:45:30.138Z,71.60
2019-04-29T02:48:34.446Z,71.60
2019-04-29T02:51:46.875Z,71.60
2019-04-29T02:54:48.381Z,71.70
2019-04-29T02:57:58.250Z,71.60
2019-04-29T03:01:18.528Z,72.40
2019-04-29T03:04:22.730Z,72.80
2019-04-29T03:07:24.041Z,73.00
2019-04-29T03:10:25.379Z,72.60
2019-04-29T03:13:26.704Z,73.00
2019-04-29T03:16:28.115Z,73.20
2019-04-29T03:19:34.323Z,73.00
2019-04-29T03:22:37.710Z,72.70
2019-04-29T03:25:39.040Z,72.60
2019-04-29T03:28:40.338Z,72.60
2019-04-29T03:31:42.732Z,72.30
2019-04-29T03:34:44.009Z,72.30
2019-04-29T03:37:45.342Z,72.40
2019-04-29T03:40:46.656Z,72.30
2019-04-29T03:43:48.002Z,72.20
2019-04-29T03:46:50.447Z,72.00
2019-04-29T03:49:51.731Z,72.00
2019-04-29T03:52:53.050Z,72.30
2019-04-29T03:55:56.565Z,72.50
2019-04-29T03:58:57.929Z,72.50
2019-04-29T04:02:21.010Z,72.20
2019-04-29T04:05:59.458Z,72.50
2019-04-29T04:09:12.319Z,72.70
2019-04-29T04:12:13.661Z,73.10
2019-04-29T04:15:15.069Z,73.10
2019-04-29T04:18:26.391Z,72.80
2019-04-29T04:21:27.700Z,72.60
2019-04-29T04:24:29.035Z,72.50
2019-04-29T04:27:30.419Z,72.40
2019-04-29T04:30:31.707Z,71.80
2019-04-29T04:33:33.050Z,72.20
2019-04-29T04:36:34.357Z,72.20
2019-04-29T04:39:37.336Z,72.30
2019-04-29T04:42:38.636Z,71.90
2019-04-29T04:45:39.963Z,72.20
2019-04-29T04:48:41.269Z,72.10
2019-04-29T04:51:42.556Z,72.00
2019-04-29T04:54:45.553Z,71.90
2019-04-29T04:57:46.823Z,71.70
2019-04-29T05:00:48.150Z,71.60
2019-04-29T05:03:49.559Z,72.60
2019-04-29T05:06:50.851Z,71.90
2019-04-29T05:09:52.166Z,72.00
2019-04-29T05:12:53.446Z,72.00
2019-04-29T05:15:54.757Z,71.80
2019-04-29T05:18:56.090Z,71.90
2019-04-29T05:21:57.385Z,71.80
2019-04-29T05:24:58.698Z,72.10
2019-04-29T05:27:59.983Z,72.00
2019-04-29T05:31:02.469Z,71.90
2019-04-29T05:34:03.778Z,72.00
2019-04-29T05:37:30.020Z,71.80
2019-04-29T05:40:38.977Z,71.90
2019-04-29T05:43:46.361Z,72.00
2019-04-29T05:46:54.126Z,71.90
2019-04-29T05:50:16.876Z,71.80
2019-04-29T05:53:23.124Z,71.60
2019-04-29T05:56:24.441Z,71.50
2019-04-29T05:59:25.776Z,71.50
2019-04-29T06:02:33.576Z,71.60
2019-04-29T06:05:30.111Z,71.90
2019-04-29T06:08:34.427Z,71.90
2019-04-29T06:11:34.430Z,71.80
2019-04-29T06:14:35.733Z,71.70
2019-04-29T06:17:40.224Z,72.00
2019-04-29T06:20:40.043Z,71.80
2019-04-29T06:23:41.380Z,71.90
2019-04-29T06:26:43.835Z,71.70
2019-04-29T06:29:45.265Z,71.80
2019-04-29T06:32:46.589Z,71.80
2019-04-29T06:35:49.038Z,71.60
2019-04-29T06:38:50.480Z,71.40
2019-04-29T06:41:51.825Z,71.40
2019-04-29T06:44:53.125Z,71.40
2019-04-29T06:47:54.591Z,71.20
2019-04-29T06:50:55.883Z,71.00
2019-04-29T06:53:57.218Z,70.60
2019-04-29T06:56:58.528Z,70.00
2019-04-29T06:59:59.863Z,69.70
2019-04-29T07:03:01.165Z,69.30
2019-04-29T07:06:02.557Z,69.40
2019-04-29T07:09:04.744Z,69.10
2019-04-29T07:12:08.088Z,68.90
2019-04-29T07:15:12.267Z,68.70
2019-04-29T07:18:12.844Z,67.10
2019-04-29T07:21:14.201Z,66.90
2019-04-29T07:24:15.567Z,65.90
2019-04-29T07:27:16.954Z,65.20
2019-04-29T07:30:19.455Z,65.20
2019-04-29T07:33:22.773Z,64.40
2019-04-29T07:36:24.014Z,65.00
2019-04-29T07:39:26.892Z,63.60
2019-04-29T07:42:32.305Z,63.30
2019-04-29T07:45:58.898Z,63.30
2019-04-29T07:49:01.637Z,62.90
2019-04-29T07:52:02.962Z,62.00
2019-04-29T07:55:04.491Z,60.80
2019-04-29T07:58:05.876Z,60.30
2019-04-29T08:01:07.837Z,59.90
2019-04-29T08:04:09.195Z,58.90
2019-04-29T08:07:10.537Z,59.10
2019-04-29T08:10:23.411Z,58.50
2019-04-29T08:13:16.521Z,58.80
2019-04-29T08:16:18.638Z,58.60
2019-04-29T08:19:20.212Z,57.80
2019-04-29T08:22:27.247Z,57.20
2019-04-29T08:25:27.075Z,57.10
2019-04-29T08:28:28.630Z,57.00
2019-04-29T08:31:30.047Z,56.00
2019-04-29T08:34:31.406Z,56.00
2019-04-29T08:37:32.734Z,55.70
2019-04-29T08:40:34.452Z,55.50
2019-04-29T08:44:15.262Z,55.10
2019-04-29T08:47:22.964Z,55.00
2019-04-29T08:50:24.103Z,54.70
2019-04-29T08:53:25.542Z,55.00
2019-04-29T08:56:26.898Z,54.80
2019-04-29T08:59:28.291Z,54.70
2019-04-29T09:02:35.002Z,53.80
2019-04-29T09:05:32.692Z,54.10
2019-04-29T09:08:36.769Z,54.40
2019-04-29T09:11:38.214Z,53.70
2019-04-29T09:14:39.554Z,54.20
2019-04-29T09:17:40.887Z,53.90
2019-04-29T09:20:42.885Z,53.10
2019-04-29T09:23:44.230Z,52.90
2019-04-29T09:26:57.336Z,53.20
2019-04-29T09:30:00.488Z,52.90
2019-04-29T09:33:03.596Z,52.30
2019-04-29T09:36:04.957Z,51.90
2019-04-29T09:39:06.607Z,51.30
2019-04-29T09:42:31.100Z,51.60
2019-04-29T09:45:47.287Z,51.70
2019-04-29T09:48:48.664Z,51.20
2019-04-29T09:51:50.832Z,51.30
2019-04-29T09:54:53.159Z,50.90
2019-04-29T09:57:55.124Z,51.70
2019-04-29T10:01:21.657Z,51.90
2019-04-29T10:04:35.709Z,51.50
2019-04-29T10:07:37.158Z,51.40
2019-04-29T10:10:38.519Z,51.20
2019-04-29T10:13:39.923Z,50.90
2019-04-29T10:17:15.316Z,51.00
2019-04-29T10:20:37.676Z,50.70
2019-04-29T10:23:39.335Z,50.50
2019-04-29T10:26:40.688Z,49.90
2019-04-29T10:29:43.887Z,50.60
2019-04-29T10:32:45.245Z,50.00
2019-04-29T10:35:46.667Z,49.60
2019-04-29T10:38:49.283Z,49.20
2019-04-29T10:41:50.847Z,49.30
2019-04-29T10:45:02.910Z,48.90
2019-04-29T10:48:12.640Z,49.00
2019-04-29T10:51:16.029Z,48.60
2019-04-29T10:54:17.483Z,48.80
2019-04-29T10:57:19.160Z,49.20
2019-04-29T11:00:39.014Z,48.40
2019-04-29T11:03:40.523Z,48.40
2019-04-29T11:06:44.024Z,48.50
2019-04-29T11:09:53.745Z,48.20
2019-04-29T11:12:55.909Z,48.40
2019-04-29T11:15:57.384Z,48.60
2019-04-29T11:19:00.143Z,48.30
2019-04-29T11:22:03.198Z,48.20
2019-04-29T11:25:27.189Z,47.90
2019-04-29T11:28:30.673Z,48.40
2019-04-29T11:31:33.309Z,48.40
2019-04-29T11:34:53.326Z,48.60
2019-04-29T11:37:54.945Z,48.50
2019-04-29T11:40:57.270Z,48.60
2019-04-29T11:43:58.616Z,48.70
2019-04-29T11:47:00.065Z,48.90
2019-04-29T11:50:13.673Z,48.80
2019-04-29T11:53:15.581Z,48.80
2019-04-29T11:56:16.916Z,48.70
2019-04-29T11:59:36.149Z,48.80
2019-04-29T12:02:56.470Z,47.80
2019-04-29T12:06:00.938Z,47.40
2019-04-29T12:09:02.263Z,47.20
2019-04-29T12:12:07.786Z,47.00
2019-04-29T12:15:21.172Z,46.60
2019-04-29T12:18:29.330Z,46.20
2019-04-29T12:21:32.890Z,47.00
2019-04-29T12:24:34.249Z,46.40
2019-04-29T12:27:35.584Z,45.20
2019-04-29T12:30:39.925Z,45.80
2019-04-29T12:33:47.077Z,46.20
2019-04-29T12:36:56.260Z,45.40
2019-04-29T12:40:14.432Z,45.00
2019-04-29T12:43:38.408Z,44.50
2019-04-29T12:46:56.026Z,44.20
2019-04-29T12:49:57.382Z,43.90
2019-04-29T12:52:58.735Z,43.00
2019-04-29T12:56:00.086Z,43.70
2019-04-29T12:59:01.924Z,44.00
2019-04-29T13:02:24.334Z,43.60
2019-04-29T13:05:35.759Z,43.60
2019-04-29T13:08:46.523Z,43.40
2019-04-29T13:11:49.423Z,44.30
2019-04-29T13:15:22.044Z,43.40
2019-04-29T13:18:36.187Z,42.70
2019-04-29T13:21:39.318Z,42.70
2019-04-29T13:24:42.781Z,42.10
2019-04-29T13:27:43.679Z,41.80
2019-04-29T13:30:45.041Z,41.80
2019-04-29T13:33:51.055Z,42.70
2019-04-29T13:37:06.150Z,43.00
2019-04-29T13:39:55.608Z,43.10
2019-04-29T13:42:56.552Z,42.90
2019-04-29T13:46:25.664Z,42.80
2019-04-29T13:49:52.929Z,42.70
2019-04-29T13:52:54.293Z,42.70
2019-04-29T13:56:10.467Z,43.40
2019-04-29T13:59:05.439Z,43.00
2019-04-29T14:02:36.772Z,43.00
2019-04-29T14:05:36.678Z,43.40
2019-04-29T14:08:39.225Z,43.20
2019-04-29T14:11:40.571Z,43.10
2019-04-29T14:14:41.931Z,42.50
2019-04-29T14:17:43.304Z,42.90
2019-04-29T14:20:47.368Z,43.10
2019-04-29T14:23:47.743Z,43.40
2019-04-29T14:26:49.065Z,43.70
2019-04-29T14:29:51.525Z,43.60
2019-04-29T14:32:56.943Z,43.30
2019-04-29T14:36:03.924Z,43.40
2019-04-29T14:39:08.049Z,43.90
2019-04-29T14:42:17.963Z,44.00
2019-04-29T14:45:35.381Z,44.10
2019-04-29T14:48:59.570Z,43.90
2019-04-29T14:52:03.482Z,43.90
2019-04-29T14:55:05.144Z,43.50
2019-04-29T14:58:06.482Z,43.70
2019-04-29T15:01:33.387Z,44.00
2019-04-29T15:04:37.405Z,44.50
2019-04-29T15:07:38.754Z,44.90
2019-04-29T15:10:40.353Z,45.30
2019-04-29T15:13:43.169Z,45.30
2019-04-29T15:16:49.738Z,45.60
2019-04-29T15:20:16.297Z,45.90
2019-04-29T15:23:28.462Z,45.80
2019-04-29T15:26:21.074Z,45.60
2019-04-29T15:29:22.551Z,45.70
2019-04-29T15:32:23.918Z,45.70
2019-04-29T15:35:26.314Z,45.60
2019-04-29T15:38:27.646Z,45.80
2019-04-29T15:41:30.781Z,46.10
2019-04-29T15:44:32.046Z,46.20
2019-04-29T15:47:33.505Z,46.40
2019-04-29T15:50:37.159Z,46.50
2019-04-29T15:53:38.910Z,46.50
2019-04-29T15:56:40.542Z,46.60
2019-04-29T15:59:48.881Z,46.90
2019-04-29T16:02:45.329Z,47.20
2019-04-29T16:06:19.959Z,47.60
2019-04-29T16:09:23.610Z,47.70
2019-04-29T16:12:34.168Z,47.60
2019-04-29T16:15:35.552Z,47.20
2019-04-29T16:18:36.905Z,47.30
2019-04-29T16:21:39.719Z,46.90
2019-04-29T16:24:41.442Z,47.20
2019-04-29T16:27:51.541Z,47.10
2019-04-29T16:30:45.816Z,47.10
2019-04-29T16:33:54.264Z,47.20
2019-04-29T16:36:52.431Z,47.10
2019-04-29T16:39:59.568Z,47.30
2019-04-29T16:43:02.205Z,47.40
2019-04-29T16:46:09.218Z,48.20
2019-04-29T16:49:10.829Z,47.70
2019-04-29T16:52:12.590Z,47.90
2019-04-29T16:55:14.132Z,47.90
2019-04-29T16:58:18.167Z,47.70
2019-04-29T17:01:18.516Z,47.60
2019-04-29T17:04:19.956Z,48.30
2019-04-29T17:07:21.367Z,48.20
2019-04-29T17:10:29.113Z,48.10
2019-04-29T17:13:30.474Z,48.00
2019-04-29T17:16:31.825Z,48.00
2019-04-29T17:19:33.179Z,48.80
2019-04-29T17:22:35.693Z,48.30
2019-04-29T17:25:37.612Z,48.60
2019-04-29T17:28:46.718Z,48.70
2019-04-29T17:32:07.667Z,49.00
2019-04-29T17:35:10.533Z,49.10
2019-04-29T17:38:12.094Z,49.30
2019-04-29T17:41:13.556Z,49.50
2019-04-29T17:44:32.757Z,49.80
2019-04-29T17:47:53.134Z,49.80
2019-04-29T17:51:02.939Z,49.70
2019-04-29T17:54:07.350Z,50.00
2019-04-29T17:57:28.140Z,50.50
2019-04-29T18:00:56.252Z,51.10
2019-04-29T18:04:05.974Z,51.30
2019-04-29T18:07:25.068Z,51.40
2019-04-29T18:10:34.833Z,51.40
2019-04-29T18:13:36.950Z,52.10
2019-04-29T18:16:43.645Z,53.50
2019-04-29T18:19:58.027Z,53.90
2019-04-29T18:23:27.950Z,54.10
2019-04-29T18:26:33.443Z,54.10
2019-04-29T18:29:41.362Z,54.40
2019-04-29T18:32:42.321Z,54.80
2019-04-29T18:35:41.024Z,55.40
2019-04-29T18:38:46.182Z,55.30
2019-04-29T18:41:45.460Z,55.70
2019-04-29T18:44:55.137Z,55.60
2019-04-29T18:47:49.846Z,56.10
2019-04-29T18:50:51.214Z,56.30
2019-04-29T18:53:52.582Z,56.30
2019-04-29T18:56:55.804Z,56.70
2019-04-29T18:59:56.975Z,57.80
2019-04-29T19:03:01.131Z,58.50
2019-04-29T19:06:03.282Z,59.50
2019-04-29T19:09:17.023Z,59.80
2019-04-29T19:12:10.472Z,60.00
2019-04-29T19:15:12.517Z,60.30
2019-04-29T19:18:17.597Z,60.40
2019-04-29T19:21:18.033Z,60.90
2019-04-29T19:24:19.406Z,61.00
2019-04-29T19:27:20.847Z,61.00
2019-04-29T19:30:26.498Z,61.10
2019-04-29T19:33:25.362Z,60.90
2019-04-29T19:36:26.804Z,61.20
2019-04-29T19:39:28.262Z,61.30
2019-04-29T19:42:35.358Z,61.40
2019-04-29T19:45:32.934Z,61.50
2019-04-29T19:48:34.810Z,61.30
2019-04-29T19:51:39.354Z,61.00
2019-04-29T19:54:40.564Z,61.20
2019-04-29T19:57:47.023Z,61.30
2019-04-29T20:00:47.230Z,61.00
2019-04-29T20:04:00.670Z,60.40
2019-04-29T20:07:07.250Z,60.30
2019-04-29T20:10:09.329Z,60.60
2019-04-29T20:13:09.264Z,60.50
2019-04-29T20:16:56.469Z,60.50
2019-04-29T20:20:05.885Z,60.40
2019-04-29T20:23:07.384Z,60.30
2019-04-29T20:26:15.479Z,60.30
2019-04-29T20:29:12.025Z,60.80
2019-04-29T20:32:13.379Z,60.50
2019-04-29T20:35:15.869Z,60.80
2019-04-29T20:38:19.253Z,60.90
2019-04-29T20:41:36.958Z,60.80
2019-04-29T20:44:23.844Z,61.20
2019-04-29T20:47:37.229Z,61.30
2019-04-29T20:50:28.587Z,61.30
2019-04-29T20:53:39.799Z,61.40
2019-04-29T20:56:41.023Z,62.00
2019-04-29T20:59:47.016Z,62.20
2019-04-29T21:02:48.522Z,62.00
2019-04-29T21:05:50.291Z,61.80
2019-04-29T21:08:52.249Z,62.20
2019-04-29T21:12:21.563Z,62.50
2019-04-29T21:15:28.942Z,62.50
2019-04-29T21:18:30.376Z,62.40
2019-04-29T21:21:36.786Z,63.20
2019-04-29T21:24:35.802Z,62.90
2019-04-29T21:27:37.174Z,63.10
2019-04-29T21:30:42.498Z,63.40
2019-04-29T21:33:41.664Z,63.70
2019-04-29T21:36:57.078Z,63.70
2019-04-29T21:40:14.708Z,63.90
2019-04-29T21:43:17.737Z,63.90
2019-04-29T21:46:24.885Z,64.10
2019-04-29T21:49:22.001Z,64.00
2019-04-29T21:52:23.994Z,64.60
2019-04-29T21:55:29.341Z,64.80
2019-04-29T21:58:32.960Z,64.70
2019-04-29T22:01:34.329Z,65.00
2019-04-29T22:04:37.378Z,65.10
2019-04-29T22:07:39.718Z,65.50
2019-04-29T22:10:42.206Z,65.70
2019-04-29T22:13:45.234Z,65.70
2019-04-29T22:16:47.590Z,65.80
2019-04-29T22:19:49.764Z,66.20
2019-04-29T22:22:51.189Z,66.50
2019-04-29T22:25:52.560Z,66.60
2019-04-29T22:29:01.818Z,66.40
2019-04-29T22:31:57.018Z,66.40
2019-04-29T22:35:01.631Z,67.00
2019-04-29T22:38:02.712Z,67.30
2019-04-29T22:41:06.035Z,67.60
2019-04-29T22:44:08.567Z,67.90
2019-04-29T22:47:09.928Z,67.90
2019-04-29T22:50:11.472Z,67.90
2019-04-29T22:53:14.702Z,68.20
2019-04-29T22:56:16.086Z,68.30
2019-04-29T22:59:19.076Z,69.00
2019-04-29T23:02:25.095Z,69.10
2019-04-29T23:05:27.980Z,68.90
2019-04-29T23:08:29.815Z,69.00
2019-04-29T23:11:34.784Z,69.10
2019-04-29T23:14:34.039Z,69.10
2019-04-29T23:17:35.618Z,69.40
2019-04-29T23:20:55.367Z,69.50
2019-04-29T23:24:13.257Z,69.30
2019-04-29T23:27:16.340Z,69.10
2019-04-29T23:30:21.375Z,69.20
2019-04-29T23:33:24.037Z,69.20
2019-04-29T23:36:25.975Z,69.60
2019-04-29T23:39:27.324Z,69.90
2019-04-29T23:42:28.708Z,69.50
2019-04-29T23:45:30.129Z,69.40
2019-04-29T23:48:38.865Z,69.40
2019-04-29T23:51:37.698Z,69.40
2019-04-29T23:54:44.279Z,69.30
2019-04-29T23:58:12.049Z,69.30
